createdAt,value
2023-05-18T00:04:17.371Z,79.23
2023-05-18T00:09:16.621Z,78.33
2023-05-18T00:14:15.606Z,78.50
2023-05-18T00:19:16.357Z,79.19
2023-05-18T00:24:15.945Z,77.78
2023-05-18T00:29:14.701Z,78.08
2023-05-18T00:34:16.625Z,78.99
2023-05-18T00:39:15.334Z,79.48
2023-05-18T00:44:14.147Z,78.54
2023-05-18T00:49:13.130Z,78.82
2023-05-18T00:54:13.479Z,78.63
2023-05-18T00:59:12.412Z,80.31
2023-05-18T01:04:14.360Z,80.28
2023-05-18T01:09:16.403Z,79.91
2023-05-18T01:14:19.303Z,80.62
2023-05-18T01:19:40.197Z,80.83
2023-05-18T01:24:44.614Z,80.96
2023-05-18T01:29:47.360Z,81.08
2023-05-18T01:34:46.191Z,80.05
2023-05-18T01:39:45.024Z,79.68
2023-05-18T01:44:49.828Z,79.56
2023-05-18T01:49:55.072Z,80.10
2023-05-18T01:54:57.588Z,79.39
2023-05-18T02:00:00.228Z,79.02
2023-05-18T02:04:59.285Z,78.64
2023-05-18T02:09:58.158Z,77.96
2023-05-18T02:14:58.638Z,77.15
2023-05-18T02:19:57.563Z,76.57
2023-05-18T02:24:57.011Z,77.30
2023-05-18T02:29:56.925Z,77.98
2023-05-18T02:34:57.276Z,79.42
2023-05-18T02:39:56.082Z,79.28
2023-05-18T02:44:56.328Z,78.46
2023-05-18T02:49:55.402Z,78.25
2023-05-18T02:54:56.409Z,77.55
2023-05-18T03:00:13.336Z,77.25
2023-05-18T03:05:12.259Z,77.65
2023-05-18T03:10:12.864Z,77.94
2023-05-18T03:15:13.967Z,77.80
2023-05-18T03:20:15.701Z,78.34
2023-05-18T03:25:16.613Z,77.81
2023-05-18T03:30:18.034Z,77.83
2023-05-18T03:35:17.516Z,77.97
2023-05-18T03:40:20.622Z,77.58
2023-05-18T03:45:21.294Z,77.63
2023-05-18T03:50:20.198Z,77.68
2023-05-18T03:55:21.647Z,77.32
2023-05-18T04:00:20.963Z,77.27
2023-05-18T04:05:21.100Z,77.56
2023-05-18T04:10:22.153Z,77.73
2023-05-18T04:15:20.957Z,77.29
2023-05-18T04:20:21.357Z,77.96
2023-05-18T04:25:21.541Z,77.57
2023-05-18T04:30:22.623Z,77.71
2023-05-18T04:35:22.502Z,80.58
2023-05-18T04:40:23.437Z,80.76
2023-05-18T04:45:22.994Z,79.23
2023-05-18T04:50:24.753Z,79.45
2023-05-18T04:55:28.419Z,78.50
2023-05-18T05:00:32.021Z,78.52
2023-05-18T05:05:31.293Z,77.71
2023-05-18T05:10:31.684Z,78.00
2023-05-18T05:15:32.143Z,77.27
2023-05-18T05:20:31.019Z,78.17
2023-05-18T05:25:31.673Z,77.42
2023-05-18T05:30:30.988Z,77.23
2023-05-18T05:35:31.884Z,76.87
2023-05-18T05:40:33.593Z,75.42
2023-05-18T05:45:32.937Z,75.90
2023-05-18T05:50:35.762Z,76.04
2023-05-18T05:55:41.379Z,75.32
2023-05-18T06:00:47.217Z,74.43
2023-05-18T06:05:46.513Z,73.02
2023-05-18T06:10:51.211Z,73.92
2023-05-18T06:15:50.683Z,73.72
2023-05-18T06:20:49.582Z,73.50
2023-05-18T06:25:50.919Z,74.33
2023-05-18T06:31:06.846Z,73.27
2023-05-18T06:36:28.722Z,73.50
2023-05-18T06:41:30.915Z,72.80
2023-05-18T06:46:31.840Z,72.33
2023-05-18T06:51:39.445Z,71.38
2023-05-18T06:56:39.986Z,70.53
2023-05-18T07:01:38.904Z,70.20
2023-05-18T07:06:38.443Z,70.05
2023-05-18T07:11:37.187Z,70.47
2023-05-18T07:16:37.593Z,69.42
2023-05-18T07:21:36.395Z,83.58
2023-05-18T07:26:35.144Z,69.79
2023-05-18T07:31:45.029Z,67.40
2023-05-18T07:36:52.477Z,66.87
2023-05-18T07:41:51.515Z,66.09
2023-05-18T07:46:50.405Z,64.81
2023-05-18T07:51:53.551Z,63.79
2023-05-18T07:56:52.837Z,63.02
2023-05-18T08:01:51.708Z,60.82
2023-05-18T08:06:56.393Z,59.24
2023-05-18T08:11:55.200Z,58.41
2023-05-18T08:16:54.066Z,58.10
2023-05-18T08:21:54.348Z,57.88
2023-05-18T08:26:53.273Z,56.59
2023-05-18T08:31:52.892Z,56.34
2023-05-18T08:36:53.165Z,55.25
2023-05-18T08:42:02.495Z,55.79
2023-05-18T08:47:02.059Z,55.26
2023-05-18T08:52:05.672Z,55.18
2023-05-18T08:57:12.074Z,54.46
2023-05-18T09:02:11.522Z,53.67
2023-05-18T09:07:11.776Z,52.63
2023-05-18T09:12:12.963Z,52.54
2023-05-18T09:17:12.027Z,51.31
2023-05-18T09:22:10.995Z,51.06
2023-05-18T09:27:11.191Z,48.81
2023-05-18T09:32:12.255Z,56.85
2023-05-18T09:37:11.325Z,47.72
2023-05-18T09:42:12.401Z,47.11
2023-05-18T09:47:11.793Z,47.55
2023-05-18T09:52:11.017Z,46.01
2023-05-18T09:57:14.364Z,45.92
2023-05-18T10:02:15.587Z,43.78
2023-05-18T10:07:17.387Z,44.79
2023-05-18T10:12:19.873Z,44.09
2023-05-18T10:17:18.808Z,43.46
2023-05-18T10:22:19.717Z,42.63
2023-05-18T10:27:25.474Z,42.85
2023-05-18T10:32:25.513Z,42.46
2023-05-18T10:37:25.324Z,43.93
2023-05-18T10:42:31.161Z,44.19
2023-05-18T10:47:31.040Z,44.35
2023-05-18T10:52:32.042Z,43.52
2023-05-18T10:57:40.203Z,43.74
2023-05-18T11:02:43.108Z,43.15
2023-05-18T11:07:46.431Z,43.40
2023-05-18T11:12:46.720Z,44.81
2023-05-18T11:17:45.439Z,43.74
2023-05-18T11:22:46.887Z,42.23
2023-05-18T11:27:46.731Z,40.71
2023-05-18T11:32:52.697Z,41.17
2023-05-18T11:37:51.857Z,38.28
2023-05-18T11:42:59.538Z,36.95
2023-05-18T11:48:03.051Z,37.01
2023-05-18T11:53:02.467Z,37.46
2023-05-18T11:58:02.630Z,36.08
2023-05-18T12:03:02.928Z,34.20
2023-05-18T12:08:02.046Z,34.83
2023-05-18T12:13:02.925Z,35.20
2023-05-18T12:18:01.787Z,36.45
2023-05-18T12:23:01.260Z,39.28
2023-05-18T12:28:05.284Z,38.17
2023-05-18T12:33:05.073Z,39.38
2023-05-18T12:38:05.044Z,39.32
2023-05-18T12:43:05.741Z,39.04
2023-05-18T12:48:08.731Z,39.43
2023-05-18T12:53:08.058Z,40.28
2023-05-18T12:58:17.134Z,39.90
2023-05-18T13:03:22.017Z,39.18
2023-05-18T13:08:22.517Z,37.94
2023-05-18T13:13:23.405Z,37.48
2023-05-18T13:18:23.381Z,38.02
2023-05-18T13:23:27.195Z,38.28
2023-05-18T13:28:29.700Z,39.04
2023-05-18T13:33:35.716Z,39.30
2023-05-18T13:38:37.341Z,40.88
2023-05-18T13:43:37.525Z,40.07
2023-05-18T13:48:36.492Z,40.86
2023-05-18T13:53:35.248Z,41.79
2023-05-18T13:58:33.990Z,41.35
2023-05-18T14:03:34.312Z,41.76
2023-05-18T14:08:40.553Z,42.25
2023-05-18T14:13:39.946Z,41.46
2023-05-18T14:18:40.527Z,41.64
2023-05-18T14:23:39.610Z,42.85
2023-05-18T14:28:38.781Z,42.43
2023-05-18T14:33:37.906Z,42.14
2023-05-18T14:38:40.941Z,42.27
2023-05-18T14:43:39.704Z,41.12
2023-05-18T14:48:41.306Z,41.56
2023-05-18T14:53:42.179Z,41.75
2023-05-18T14:58:41.523Z,42.04
2023-05-18T15:03:40.421Z,41.52
2023-05-18T15:08:39.462Z,41.03
2023-05-18T15:13:40.739Z,42.15
2023-05-18T15:18:39.802Z,42.52
2023-05-18T15:23:39.111Z,42.58
2023-05-18T15:28:41.683Z,42.61
2023-05-18T15:33:43.517Z,43.22
2023-05-18T15:38:45.432Z,43.75
2023-05-18T15:43:46.782Z,44.20
2023-05-18T15:48:46.053Z,44.98
2023-05-18T15:53:44.917Z,44.67
2023-05-18T15:58:45.570Z,50.16
2023-05-18T16:03:44.628Z,48.35
2023-05-18T16:08:45.931Z,48.50
2023-05-18T16:13:47.823Z,49.41
2023-05-18T16:18:46.879Z,51.22
2023-05-18T16:23:46.683Z,50.78
2023-05-18T16:28:46.829Z,50.18
2023-05-18T16:33:45.734Z,48.67
2023-05-18T16:38:53.086Z,50.97
2023-05-18T16:43:54.554Z,52.47
2023-05-18T16:48:53.485Z,53.41
2023-05-18T16:53:52.805Z,51.69
2023-05-18T16:58:52.524Z,50.81
2023-05-18T17:03:52.908Z,51.33
2023-05-18T17:08:57.645Z,52.04
2023-05-18T17:14:00.964Z,52.83
2023-05-18T17:19:01.241Z,52.88
2023-05-18T17:24:00.156Z,53.28
2023-05-18T17:28:58.970Z,53.82
2023-05-18T17:33:57.825Z,53.97
2023-05-18T17:38:57.988Z,54.12
2023-05-18T17:43:56.744Z,54.51
2023-05-18T17:48:55.936Z,55.28
2023-05-18T17:53:56.513Z,55.62
2023-05-18T17:58:58.697Z,57.12
2023-05-18T18:03:58.918Z,57.78
2023-05-18T18:08:59.915Z,59.71
2023-05-18T18:14:02.555Z,60.82
2023-05-18T18:19:03.471Z,61.56
2023-05-18T18:24:03.110Z,61.99
2023-05-18T18:29:03.876Z,63.55
2023-05-18T18:34:04.091Z,64.81
2023-05-18T18:39:08.501Z,64.67
2023-05-18T18:44:12.928Z,64.33
2023-05-18T18:49:13.459Z,65.31
2023-05-18T18:54:15.389Z,66.58
2023-05-18T18:59:16.025Z,66.86
2023-05-18T19:04:14.931Z,66.82
2023-05-18T19:09:13.988Z,67.78
2023-05-18T19:14:12.809Z,68.08
2023-05-18T19:19:14.722Z,68.36
2023-05-18T19:24:15.448Z,68.33
2023-05-18T19:29:15.175Z,69.41
2023-05-18T19:34:15.509Z,69.22
2023-05-18T19:39:16.372Z,69.11
2023-05-18T19:44:15.894Z,69.11
2023-05-18T19:49:16.239Z,70.04
2023-05-18T19:54:15.196Z,70.75
2023-05-18T19:59:14.089Z,71.25
2023-05-18T20:04:13.111Z,71.69
2023-05-18T20:09:13.324Z,71.60
2023-05-18T20:14:12.078Z,71.40
2023-05-18T20:19:12.949Z,71.52
2023-05-18T20:24:16.062Z,71.95
2023-05-18T20:29:14.815Z,71.63
2023-05-18T20:34:28.124Z,72.30
2023-05-18T20:39:28.859Z,73.35
2023-05-18T20:44:29.534Z,73.53
2023-05-18T20:49:37.943Z,73.75
2023-05-18T20:54:38.428Z,74.60
2023-05-18T20:59:37.273Z,74.29
2023-05-18T21:04:36.250Z,73.93
2023-05-18T21:09:34.994Z,73.70
2023-05-18T21:14:40.415Z,74.11
2023-05-18T21:19:39.540Z,74.68
2023-05-18T21:24:38.499Z,74.26
2023-05-18T21:29:38.797Z,74.19
2023-05-18T21:34:37.547Z,74.58
2023-05-18T21:39:36.422Z,75.04
2023-05-18T21:44:35.236Z,74.71
2023-05-18T21:49:35.502Z,75.21
2023-05-18T21:54:35.620Z,75.98
2023-05-18T21:59:34.446Z,75.49
2023-05-18T22:04:33.363Z,75.93
2023-05-18T22:09:33.484Z,76.77
2023-05-18T22:14:32.189Z,77.65
2023-05-18T22:19:30.909Z,76.89
2023-05-18T22:24:29.649Z,77.52
2023-05-18T22:29:29.868Z,77.96
2023-05-18T22:34:28.637Z,76.98
2023-05-18T22:39:27.460Z,77.81
2023-05-18T22:44:26.225Z,76.55
2023-05-18T22:49:26.689Z,76.37
2023-05-18T22:54:25.478Z,75.93
2023-05-18T22:59:24.296Z,76.27
2023-05-18T23:04:23.113Z,76.15
2023-05-18T23:09:23.251Z,77.15
2023-05-18T23:14:22.250Z,76.70
2023-05-18T23:19:21.120Z,76.96
2023-05-18T23:24:19.965Z,77.65
2023-05-18T23:29:20.098Z,78.15
2023-05-18T23:34:19.370Z,78.51
2023-05-18T23:39:18.115Z,78.05
2023-05-18T23:44:17.438Z,77.98
2023-05-18T23:49:18.256Z,78.00
2023-05-18T23:54:17.618Z,78.08
2023-05-18T23:59:16.582Z,78.16
